SBMO/MCZ METAR and TAF weather

Enter ICAO airport designator
Station Type Date Time Source
SBMO METAR 2019/02/16 03:00 UTC NOAA

SBMO 160300Z 07004KT 9999 BKN020 26/23 Q1012


Station Type Date Time Source
SBMO Decoded METAR 2019/02/16 03:00 UTC NOAA

Maceio Aeroporto , Brazil (SBMO) 09-31S 035-47W 115M
Feb 15, 2019 - 10:00 PM EST / 2019.02.16 0300 UTC
Wind: from the ENE (070 degrees) at 5 MPH (4 KT):0
Visibility: greater than 7 mile(s):0
Sky conditions: mostly cloudy
Temperature: 78 F (26 C)
Dew Point: 73 F (23 C)
Relative Humidity: 83%
Pressure (altimeter): 29.88 in. Hg (1012 hPa)
ob: SBMO 160300Z 07004KT 9999 BKN020 26/23 Q1012
cycle: 3

Station Type Date Time Source
SBMO TAF 2019/02/16 06:12 UTC NOAA

TAF TAF SBMO 160200Z 1606/1706 06005KT 8000 SCT020 TN24/1608Z TX30/1616Z
BECMG 1611/1612 08011KT
RMK PEA


Example: see airport list